Algerie B738 and KLM Cityhopper E175 at Lyon on Sep 5th 2022, loss of separation on runway

Last Update: September 15, 2022 / 17:26:42 GMT/Zulu time

Bookmark this article
Incident Facts

Date of incident
Sep 5, 2022

Classification
Incident

Flight number
AH-1080

Departure
Oran, Algeria

Destination
Lyon, France

Aircraft Registration
7T-VKR

Aircraft Type
Boeing 737-800

ICAO Type Designator
B738

Airport ICAO Code
LFLL

An Air Algerie Boeing 737-800, registration 7T-VKR performing flight AH-1080 from Oran (Algeria) to Lyon (France), was on final approach to Lyon's runway 17L at 10:18L (08:18Z).

A KLM Cityhopper ERJ-175, registration PH-EXH performing flight KL-1414 from Lyon (France) to Amsterdam (Netherlands), lined up runway 17L for departure and accelerated for takeoff at the same time.

The French BEA reported the separation between the two aircraft on the runway was lost. The occurrence was rated an incident and is being investigated by the BEA.

According to ADS-B Data AH-1080 touched down in the touch down zone of the runway when the departing KL-1414 just crossed the runway end, there were about 1900 meters/1.03nm between the aircraft at that point.

Metars:
LFLL 050930Z 17015KT 9999 FEW036 27/16 Q1020 NOSIG=
LFLL 050900Z 17011KT 140V200 9999 FEW036 26/16 Q1020 NOSIG=
LFLL 050830Z 17014KT 9999 FEW035 26/17 Q1020 NOSIG=
LFLL 050800Z 17010KT 130V200 CAVOK 25/18 Q1020 NOSIG=
LFLL 050730Z 15010KT CAVOK 24/19 Q1020 NOSIG=
LFLL 050700Z 14010KT CAVOK 23/19 Q1020 NOSIG=
LFLL 050630Z 14009KT CAVOK 22/19 Q1020 NOSIG=
LFLL 050600Z 13008KT CAVOK 22/19 Q1020 NOSIG=
LFLL 050535Z 13007KT CAVOK 21/19 Q1020 NOSIG=
Incident Facts

Date of incident
Sep 5, 2022

Classification
Incident

Flight number
AH-1080

Departure
Oran, Algeria

Destination
Lyon, France

Aircraft Registration
7T-VKR

Aircraft Type
Boeing 737-800

ICAO Type Designator
B738

Airport ICAO Code
LFLL

This article is published under license from Avherald.com. © of text by Avherald.com.
Article source

You can read 2 more free articles without a subscription.

Subscribe now and continue reading without any limits!

Are you a subscriber? Login
Subscribe

Read unlimited articles and receive our daily update briefing. Gain better insights into what is happening in commercial aviation safety.

Free newsletter

Want to know more and stay ahead? Get our free weekly newsletter and join 5384 existing subscribers.

By subscribing, you accept our terms and conditions and confirm that you've read our privacy policy.

Send tip

Support AeroInside by sending a small tip amount.

Related articles

Newest articles

Subscribe today

Are you researching aviation incidents? Get access to AeroInside Insights, unlimited read access and receive the daily newsletter.

Pick your plan and subscribe

Partner

Blockaviation logo

A new way to document and demonstrate airworthiness compliance and aircraft value. Find out more.

Virtual Speech logo

ELITE Simulation Solutions is a leading global provider of Flight Simulation Training Devices, IFR training software as well as flight controls and related services. Find out more.

Get updates

Never miss an article from AeroInside. Subscribe to our free weekly newsletter and join 5384 existing subscribers.

By subscribing, you accept our terms and conditions and that you've read our privacy policy.

AeroInside Blog
Popular aircraft
Airbus A320
Boeing 737-800
Boeing 737-800 MAX
Popular airlines
American Airlines
United
Delta
Air Canada
Lufthansa
British Airways